sensor_id;sensor_type;location;lat;lon;timestamp;temperature;humidity
63094;DHT22;49183;51.380;0.098;2022-11-22T00:15:13;5.20;95.50
63094;DHT22;49183;51.380;0.098;2022-11-22T00:17:41;5.20;95.60
63094;DHT22;49183;51.380;0.098;2022-11-22T00:20:08;5.20;95.60
63094;DHT22;49183;51.380;0.098;2022-11-22T00:22:38;5.20;95.60
63094;DHT22;49183;51.380;0.098;2022-11-22T00:25:11;5.30;95.60
63094;DHT22;49183;51.380;0.098;2022-11-22T00:27:38;5.20;95.50
63094;DHT22;49183;51.380;0.098;2022-11-22T00:30:06;5.30;95.60
63094;DHT22;49183;51.380;0.098;2022-11-22T00:32:34;5.30;95.60
63094;DHT22;49183;51.380;0.098;2022-11-22T00:35:02;5.20;95.50
63094;DHT22;49183;51.380;0.098;2022-11-22T00:37:29;5.20;95.60
63094;DHT22;49183;51.380;0.098;2022-11-22T00:39:57;5.20;95.60
63094;DHT22;49183;51.380;0.098;2022-11-22T00:42:24;5.20;95.60
63094;DHT22;49183;51.380;0.098;2022-11-22T00:44:51;5.20;95.60
63094;DHT22;49183;51.380;0.098;2022-11-22T00:47:19;5.30;95.60
63094;DHT22;49183;51.380;0.098;2022-11-22T00:49:46;5.30;95.60
63094;DHT22;49183;51.380;0.098;2022-11-22T00:52:14;5.30;95.60
63094;DHT22;49183;51.380;0.098;2022-11-22T00:54:41;5.30;95.60
63094;DHT22;49183;51.380;0.098;2022-11-22T00:57:19;5.30;95.60
63094;DHT22;49183;51.380;0.098;2022-11-22T00:59:46;5.30;95.60
63094;DHT22;49183;51.380;0.098;2022-11-22T01:02:14;5.30;95.60
63094;DHT22;49183;51.380;0.098;2022-11-22T01:04:41;5.30;95.60
63094;DHT22;49183;51.380;0.098;2022-11-22T01:07:09;5.30;95.60
63094;DHT22;49183;51.380;0.098;2022-11-22T01:09:36;5.30;95.60
63094;DHT22;49183;51.380;0.098;2022-11-22T01:12:04;5.30;95.60
63094;DHT22;49183;51.380;0.098;2022-11-22T01:14:31;5.20;95.60
63094;DHT22;49183;51.380;0.098;2022-11-22T01:16:59;5.20;95.70
63094;DHT22;49183;51.380;0.098;2022-11-22T01:19:26;5.20;95.60
63094;DHT22;49183;51.380;0.098;2022-11-22T01:21:54;5.20;95.70
63094;DHT22;49183;51.380;0.098;2022-11-22T01:24:23;5.20;95.70
63094;DHT22;49183;51.380;0.098;2022-11-22T01:26:51;5.20;95.70
63094;DHT22;49183;51.380;0.098;2022-11-22T01:29:18;5.20;95.70
63094;DHT22;49183;51.380;0.098;2022-11-22T01:31:46;5.20;95.70
63094;DHT22;49183;51.380;0.098;2022-11-22T01:37:13;5.20;95.70
63094;DHT22;49183;51.380;0.098;2022-11-22T01:39:41;5.10;95.70
63094;DHT22;49183;51.380;0.098;2022-11-22T01:42:09;5.20;95.70
63094;DHT22;49183;51.380;0.098;2022-11-22T01:44:38;5.10;95.70
63094;DHT22;49183;51.380;0.098;2022-11-22T01:47:10;5.20;95.80
63094;DHT22;49183;51.380;0.098;2022-11-22T01:49:43;5.10;95.70
63094;DHT22;49183;51.380;0.098;2022-11-22T01:52:16;5.20;95.80
63094;DHT22;49183;51.380;0.098;2022-11-22T01:54:54;5.10;95.80
63094;DHT22;49183;51.380;0.098;2022-11-22T02:00:40;5.10;95.80
63094;DHT22;49183;51.380;0.098;2022-11-22T02:03:09;5.10;95.80
63094;DHT22;49183;51.380;0.098;2022-11-22T02:05:38;5.10;95.80
63094;DHT22;49183;51.380;0.098;2022-11-22T02:10:43;5.10;95.80
63094;DHT22;49183;51.380;0.098;2022-11-22T02:13:12;5.10;95.80
63094;DHT22;49183;51.380;0.098;2022-11-22T02:15:40;5.10;95.80
63094;DHT22;49183;51.380;0.098;2022-11-22T02:18:08;5.10;95.80
63094;DHT22;49183;51.380;0.098;2022-11-22T02:20:36;5.10;95.80
63094;DHT22;49183;51.380;0.098;2022-11-22T02:23:10;5.10;95.80
63094;DHT22;49183;51.380;0.098;2022-11-22T02:28:21;5.10;95.80
63094;DHT22;49183;51.380;0.098;2022-11-22T02:30:48;5.10;95.80
63094;DHT22;49183;51.380;0.098;2022-11-22T02:33:16;5.00;95.80
63094;DHT22;49183;51.380;0.098;2022-11-22T02:35:43;5.10;95.80
63094;DHT22;49183;51.380;0.098;2022-11-22T02:38:16;5.00;95.80
63094;DHT22;49183;51.380;0.098;2022-11-22T02:40:45;5.00;95.80
63094;DHT22;49183;51.380;0.098;2022-11-22T02:43:19;5.00;95.80
63094;DHT22;49183;51.380;0.098;2022-11-22T02:46:12;5.10;95.80
63094;DHT22;49183;51.380;0.098;2022-11-22T02:48:42;5.10;95.80
63094;DHT22;49183;51.380;0.098;2022-11-22T02:51:10;5.00;95.90
63094;DHT22;49183;51.380;0.098;2022-11-22T02:53:43;5.10;95.90
63094;DHT22;49183;51.380;0.098;2022-11-22T02:56:11;5.10;95.90
63094;DHT22;49183;51.380;0.098;2022-11-22T02:58:39;5.10;95.90
63094;DHT22;49183;51.380;0.098;2022-11-22T03:01:06;5.10;95.90
63094;DHT22;49183;51.380;0.098;2022-11-22T03:03:34;5.10;95.90
63094;DHT22;49183;51.380;0.098;2022-11-22T03:06:01;5.10;95.90
63094;DHT22;49183;51.380;0.098;2022-11-22T03:08:29;5.10;95.90
63094;DHT22;49183;51.380;0.098;2022-11-22T03:10:56;5.10;95.80
63094;DHT22;49183;51.380;0.098;2022-11-22T03:13:25;5.10;95.80
63094;DHT22;49183;51.380;0.098;2022-11-22T03:15:52;5.10;95.80
63094;DHT22;49183;51.380;0.098;2022-11-22T03:18:20;5.20;95.90
63094;DHT22;49183;51.380;0.098;2022-11-22T03:20:47;5.20;95.80
63094;DHT22;49183;51.380;0.098;2022-11-22T03:23:15;5.20;95.90
63094;DHT22;49183;51.380;0.098;2022-11-22T03:25:42;5.20;95.90
63094;DHT22;49183;51.380;0.098;2022-11-22T03:28:10;5.20;95.90
63094;DHT22;49183;51.380;0.098;2022-11-22T03:30:38;5.20;95.90
63094;DHT22;49183;51.380;0.098;2022-11-22T03:33:06;5.20;95.90
63094;DHT22;49183;51.380;0.098;2022-11-22T03:35:33;5.20;95.90
63094;DHT22;49183;51.380;0.098;2022-11-22T03:38:01;5.20;95.90
63094;DHT22;49183;51.380;0.098;2022-11-22T03:40:29;5.30;95.90
63094;DHT22;49183;51.380;0.098;2022-11-22T03:43:00;5.30;95.90
63094;DHT22;49183;51.380;0.098;2022-11-22T03:45:28;5.20;95.90
63094;DHT22;49183;51.380;0.098;2022-11-22T03:47:56;5.30;95.90
63094;DHT22;49183;51.380;0.098;2022-11-22T03:50:23;5.30;95.90
63094;DHT22;49183;51.380;0.098;2022-11-22T03:52:51;5.30;95.90
63094;DHT22;49183;51.380;0.098;2022-11-22T03:55:18;5.30;96.00
63094;DHT22;49183;51.380;0.098;2022-11-22T03:57:46;5.30;95.90
63094;DHT22;49183;51.380;0.098;2022-11-22T04:00:13;5.30;95.90
63094;DHT22;49183;51.380;0.098;2022-11-22T04:02:42;5.30;95.90
63094;DHT22;49183;51.380;0.098;2022-11-22T04:05:10;5.30;95.90
63094;DHT22;49183;51.380;0.098;2022-11-22T04:07:37;5.30;95.90
63094;DHT22;49183;51.380;0.098;2022-11-22T04:10:05;5.30;95.90
63094;DHT22;49183;51.380;0.098;2022-11-22T04:12:33;5.30;96.00
63094;DHT22;49183;51.380;0.098;2022-11-22T04:15:00;5.30;95.90
63094;DHT22;49183;51.380;0.098;2022-11-22T04:17:38;5.30;96.00
63094;DHT22;49183;51.380;0.098;2022-11-22T04:20:21;5.40;96.00
63094;DHT22;49183;51.380;0.098;2022-11-22T04:23:08;5.40;96.00
63094;DHT22;49183;51.380;0.098;2022-11-22T04:25:37;5.40;96.00
63094;DHT22;49183;51.380;0.098;2022-11-22T04:28:05;5.40;96.00
63094;DHT22;49183;51.380;0.098;2022-11-22T04:30:33;5.40;96.00
63094;DHT22;49183;51.380;0.098;2022-11-22T04:33:15;5.40;96.00
63094;DHT22;49183;51.380;0.098;2022-11-22T04:35:43;5.40;96.00
63094;DHT22;49183;51.380;0.098;2022-11-22T04:38:11;5.40;96.00
63094;DHT22;49183;51.380;0.098;2022-11-22T04:40:39;5.40;96.00
63094;DHT22;49183;51.380;0.098;2022-11-22T04:46:15;5.40;96.00
63094;DHT22;49183;51.380;0.098;2022-11-22T04:48:42;5.50;96.10
63094;DHT22;49183;51.380;0.098;2022-11-22T04:51:23;5.50;96.10
63094;DHT22;49183;51.380;0.098;2022-11-22T04:54:09;5.50;96.10
63094;DHT22;49183;51.380;0.098;2022-11-22T04:56:37;5.50;96.10
63094;DHT22;49183;51.380;0.098;2022-11-22T04:59:04;5.50;96.10
63094;DHT22;49183;51.380;0.098;2022-11-22T05:01:32;5.50;96.10
63094;DHT22;49183;51.380;0.098;2022-11-22T05:03:59;5.50;96.10
63094;DHT22;49183;51.380;0.098;2022-11-22T05:06:27;5.50;96.10
63094;DHT22;49183;51.380;0.098;2022-11-22T05:08:54;5.60;96.10
63094;DHT22;49183;51.380;0.098;2022-11-22T05:11:27;5.50;96.10
63094;DHT22;49183;51.380;0.098;2022-11-22T05:13:55;5.60;96.10
63094;DHT22;49183;51.380;0.098;2022-11-22T05:16:22;5.50;96.10
63094;DHT22;49183;51.380;0.098;2022-11-22T05:18:56;5.60;96.10
63094;DHT22;49183;51.380;0.098;2022-11-22T05:21:28;5.50;96.10
63094;DHT22;49183;51.380;0.098;2022-11-22T05:23:55;5.50;96.10
63094;DHT22;49183;51.380;0.098;2022-11-22T05:26:27;5.60;96.10
63094;DHT22;49183;51.380;0.098;2022-11-22T05:28:55;5.60;96.10
63094;DHT22;49183;51.380;0.098;2022-11-22T05:31:26;5.60;96.10
63094;DHT22;49183;51.380;0.098;2022-11-22T05:33:55;5.60;96.10
63094;DHT22;49183;51.380;0.098;2022-11-22T05:36:23;5.60;96.10
63094;DHT22;49183;51.380;0.098;2022-11-22T05:38:50;5.70;96.10
63094;DHT22;49183;51.380;0.098;2022-11-22T05:41:18;5.60;96.10
63094;DHT22;49183;51.380;0.098;2022-11-22T05:43:46;5.60;96.10
63094;DHT22;49183;51.380;0.098;2022-11-22T05:46:14;5.70;96.10
63094;DHT22;49183;51.380;0.098;2022-11-22T05:48:50;5.70;96.10
63094;DHT22;49183;51.380;0.098;2022-11-22T05:51:19;5.60;96.10
63094;DHT22;49183;51.380;0.098;2022-11-22T05:53:50;5.70;96.10
63094;DHT22;49183;51.380;0.098;2022-11-22T05:56:18;5.60;96.10
63094;DHT22;49183;51.380;0.098;2022-11-22T05:58:46;5.60;96.10
63094;DHT22;49183;51.380;0.098;2022-11-22T06:01:14;5.60;96.10
63094;DHT22;49183;51.380;0.098;2022-11-22T06:03:42;5.60;96.10
63094;DHT22;49183;51.380;0.098;2022-11-22T06:06:10;5.60;96.10
63094;DHT22;49183;51.380;0.098;2022-11-22T06:08:38;5.60;96.10
63094;DHT22;49183;51.380;0.098;2022-11-22T06:11:08;5.60;96.10
63094;DHT22;49183;51.380;0.098;2022-11-22T06:13:36;5.70;96.20
63094;DHT22;49183;51.380;0.098;2022-11-22T06:16:05;5.60;96.20
63094;DHT22;49183;51.380;0.098;2022-11-22T06:18:33;5.60;96.10
63094;DHT22;49183;51.380;0.098;2022-11-22T06:21:04;5.60;96.10
63094;DHT22;49183;51.380;0.098;2022-11-22T06:23:32;5.60;96.10
63094;DHT22;49183;51.380;0.098;2022-11-22T06:26:04;5.60;96.20
63094;DHT22;49183;51.380;0.098;2022-11-22T06:31:30;5.60;96.20
63094;DHT22;49183;51.380;0.098;2022-11-22T06:36:45;5.60;96.30
63094;DHT22;49183;51.380;0.098;2022-11-22T06:39:12;5.60;96.20
63094;DHT22;49183;51.380;0.098;2022-11-22T06:41:40;5.70;96.20
63094;DHT22;49183;51.380;0.098;2022-11-22T06:44:08;5.60;96.10
63094;DHT22;49183;51.380;0.098;2022-11-22T06:46:35;5.60;96.00
63094;DHT22;49183;51.380;0.098;2022-11-22T06:49:11;5.50;95.90
63094;DHT22;49183;51.380;0.098;2022-11-22T06:51:45;5.40;95.90
63094;DHT22;49183;51.380;0.098;2022-11-22T06:54:12;5.30;95.90
63094;DHT22;49183;51.380;0.098;2022-11-22T06:56:39;5.30;95.90
63094;DHT22;49183;51.380;0.098;2022-11-22T06:59:07;5.30;95.90
63094;DHT22;49183;51.380;0.098;2022-11-22T07:01:35;5.20;96.00
63094;DHT22;49183;51.380;0.098;2022-11-22T07:04:04;5.20;96.10
63094;DHT22;49183;51.380;0.098;2022-11-22T07:06:32;5.20;96.20
63094;DHT22;49183;51.380;0.098;2022-11-22T07:09:00;5.20;96.40
63094;DHT22;49183;51.380;0.098;2022-11-22T07:11:29;5.30;96.40
63094;DHT22;49183;51.380;0.098;2022-11-22T07:13:57;5.20;96.50
63094;DHT22;49183;51.380;0.098;2022-11-22T07:16:34;5.30;96.50
63094;DHT22;49183;51.380;0.098;2022-11-22T07:19:22;5.30;96.50
63094;DHT22;49183;51.380;0.098;2022-11-22T07:21:50;5.30;96.60
63094;DHT22;49183;51.380;0.098;2022-11-22T07:24:17;5.40;96.50
63094;DHT22;49183;51.380;0.098;2022-11-22T07:26:53;5.40;96.50
63094;DHT22;49183;51.380;0.098;2022-11-22T07:29:20;5.40;96.50
63094;DHT22;49183;51.380;0.098;2022-11-22T07:31:47;5.40;96.50
63094;DHT22;49183;51.380;0.098;2022-11-22T07:34:15;5.40;96.50
63094;DHT22;49183;51.380;0.098;2022-11-22T07:36:42;5.40;96.40
63094;DHT22;49183;51.380;0.098;2022-11-22T07:39:10;5.40;96.40
63094;DHT22;49183;51.380;0.098;2022-11-22T07:41:37;5.50;96.40
63094;DHT22;49183;51.380;0.098;2022-11-22T07:44:18;5.50;96.40
63094;DHT22;49183;51.380;0.098;2022-11-22T07:46:45;5.50;96.40
63094;DHT22;49183;51.380;0.098;2022-11-22T07:49:23;5.40;96.40
63094;DHT22;49183;51.380;0.098;2022-11-22T07:51:58;5.50;96.30
63094;DHT22;49183;51.380;0.098;2022-11-22T07:54:25;5.50;96.40
63094;DHT22;49183;51.380;0.098;2022-11-22T07:56:53;5.50;96.30
63094;DHT22;49183;51.380;0.098;2022-11-22T07:59:20;5.40;96.30
63094;DHT22;49183;51.380;0.098;2022-11-22T08:04:54;5.40;96.30
63094;DHT22;49183;51.380;0.098;2022-11-22T08:07:21;5.50;96.40
63094;DHT22;49183;51.380;0.098;2022-11-22T08:09:48;5.50;96.30
63094;DHT22;49183;51.380;0.098;2022-11-22T08:12:16;5.50;96.30
63094;DHT22;49183;51.380;0.098;2022-11-22T08:14:48;5.50;96.30
63094;DHT22;49183;51.380;0.098;2022-11-22T08:17:16;5.50;96.30
63094;DHT22;49183;51.380;0.098;2022-11-22T08:19:43;5.50;96.30
63094;DHT22;49183;51.380;0.098;2022-11-22T08:22:11;5.50;96.30
63094;DHT22;49183;51.380;0.098;2022-11-22T08:24:47;5.50;96.30
63094;DHT22;49183;51.380;0.098;2022-11-22T08:30:29;5.60;96.30
63094;DHT22;49183;51.380;0.098;2022-11-22T08:32:56;5.50;96.30
63094;DHT22;49183;51.380;0.098;2022-11-22T08:35:24;5.60;96.30
63094;DHT22;49183;51.380;0.098;2022-11-22T08:37:55;5.60;96.40
63094;DHT22;49183;51.380;0.098;2022-11-22T08:40:23;5.60;96.40
63094;DHT22;49183;51.380;0.098;2022-11-22T08:42:53;5.60;96.30
63094;DHT22;49183;51.380;0.098;2022-11-22T08:45:22;5.70;96.30
63094;DHT22;49183;51.380;0.098;2022-11-22T08:48:15;5.70;96.30
63094;DHT22;49183;51.380;0.098;2022-11-22T08:50:52;5.70;96.30
63094;DHT22;49183;51.380;0.098;2022-11-22T08:53:21;5.80;96.30
63094;DHT22;49183;51.380;0.098;2022-11-22T08:55:48;5.80;96.40
63094;DHT22;49183;51.380;0.098;2022-11-22T08:58:16;5.90;96.40
63094;DHT22;49183;51.380;0.098;2022-11-22T09:00:43;5.90;96.40
63094;DHT22;49183;51.380;0.098;2022-11-22T09:03:11;6.00;96.40
63094;DHT22;49183;51.380;0.098;2022-11-22T09:05:42;6.00;96.30
63094;DHT22;49183;51.380;0.098;2022-11-22T09:08:33;6.10;96.30
63094;DHT22;49183;51.380;0.098;2022-11-22T09:11:06;6.10;96.20
63094;DHT22;49183;51.380;0.098;2022-11-22T09:13:33;6.10;96.20
63094;DHT22;49183;51.380;0.098;2022-11-22T09:16:10;6.20;96.20
63094;DHT22;49183;51.380;0.098;2022-11-22T09:18:38;6.20;96.20
63094;DHT22;49183;51.380;0.098;2022-11-22T09:21:06;6.20;96.20
63094;DHT22;49183;51.380;0.098;2022-11-22T09:23:34;6.30;96.20
63094;DHT22;49183;51.380;0.098;2022-11-22T09:26:06;6.30;96.10
63094;DHT22;49183;51.380;0.098;2022-11-22T09:28:34;6.30;96.10
63094;DHT22;49183;51.380;0.098;2022-11-22T09:31:03;6.30;96.10
63094;DHT22;49183;51.380;0.098;2022-11-22T09:33:30;6.40;96.10
63094;DHT22;49183;51.380;0.098;2022-11-22T09:36:02;6.40;96.10
63094;DHT22;49183;51.380;0.098;2022-11-22T09:38:31;6.40;96.10
63094;DHT22;49183;51.380;0.098;2022-11-22T09:41:00;6.40;96.10
63094;DHT22;49183;51.380;0.098;2022-11-22T09:46:17;6.50;96.00
63094;DHT22;49183;51.380;0.098;2022-11-22T09:51:24;6.50;96.00
63094;DHT22;49183;51.380;0.098;2022-11-22T10:02:51;6.50;95.90
63094;DHT22;49183;51.380;0.098;2022-11-22T10:05:29;6.50;96.00
63094;DHT22;49183;51.380;0.098;2022-11-22T10:10:49;6.50;96.00
63094;DHT22;49183;51.380;0.098;2022-11-22T10:13:22;6.50;96.00
63094;DHT22;49183;51.380;0.098;2022-11-22T10:21:29;6.50;96.00
63094;DHT22;49183;51.380;0.098;2022-11-22T10:23:56;6.50;95.90
63094;DHT22;49183;51.380;0.098;2022-11-22T10:26:24;6.50;95.90
63094;DHT22;49183;51.380;0.098;2022-11-22T10:31:46;6.60;96.10
63094;DHT22;49183;51.380;0.098;2022-11-22T10:36:45;6.60;96.00
63094;DHT22;49183;51.380;0.098;2022-11-22T10:39:19;6.60;96.00
63094;DHT22;49183;51.380;0.098;2022-11-22T10:42:51;6.70;96.10
63094;DHT22;49183;51.380;0.098;2022-11-22T10:47:42;6.80;96.20
63094;DHT22;49183;51.380;0.098;2022-11-22T10:50:15;6.90;96.10
63094;DHT22;49183;51.380;0.098;2022-11-22T10:52:47;7.10;96.10
63094;DHT22;49183;51.380;0.098;2022-11-22T11:00:43;7.40;96.10
63094;DHT22;49183;51.380;0.098;2022-11-22T11:11:23;7.50;95.70
63094;DHT22;49183;51.380;0.098;2022-11-22T11:13:53;7.60;95.80
63094;DHT22;49183;51.380;0.098;2022-11-22T11:16:23;7.70;95.70
63094;DHT22;49183;51.380;0.098;2022-11-22T11:18:56;7.80;95.60
63094;DHT22;49183;51.380;0.098;2022-11-22T11:21:24;7.80;95.50
63094;DHT22;49183;51.380;0.098;2022-11-22T11:23:52;7.90;95.30
63094;DHT22;49183;51.380;0.098;2022-11-22T11:28:47;7.90;95.10
63094;DHT22;49183;51.380;0.098;2022-11-22T11:31:15;7.90;95.10
63094;DHT22;49183;51.380;0.098;2022-11-22T11:33:45;7.90;94.90
63094;DHT22;49183;51.380;0.098;2022-11-22T11:36:15;7.90;94.70
63094;DHT22;49183;51.380;0.098;2022-11-22T11:43:44;7.90;94.80
63094;DHT22;49183;51.380;0.098;2022-11-22T11:46:19;8.00;94.70
63094;DHT22;49183;51.380;0.098;2022-11-22T11:48:48;7.90;94.60
63094;DHT22;49183;51.380;0.098;2022-11-22T11:51:17;7.90;94.50
63094;DHT22;49183;51.380;0.098;2022-11-22T11:58:52;7.90;94.50
63094;DHT22;49183;51.380;0.098;2022-11-22T12:01:22;8.10;94.40
63094;DHT22;49183;51.380;0.098;2022-11-22T12:03:52;8.20;94.40
63094;DHT22;49183;51.380;0.098;2022-11-22T12:06:20;8.30;94.20
63094;DHT22;49183;51.380;0.098;2022-11-22T12:08:53;8.40;94.10
63094;DHT22;49183;51.380;0.098;2022-11-22T12:11:44;8.50;93.80
63094;DHT22;49183;51.380;0.098;2022-11-22T12:14:09;8.60;93.50
63094;DHT22;49183;51.380;0.098;2022-11-22T12:16:46;8.60;93.20
63094;DHT22;49183;51.380;0.098;2022-11-22T12:22:41;8.60;92.70
63094;DHT22;49183;51.380;0.098;2022-11-22T12:28:08;8.60;92.70
63094;DHT22;49183;51.380;0.098;2022-11-22T12:30:37;8.60;92.60
63094;DHT22;49183;51.380;0.098;2022-11-22T12:33:06;8.70;92.50
63094;DHT22;49183;51.380;0.098;2022-11-22T12:35:38;8.60;92.50
63094;DHT22;49183;51.380;0.098;2022-11-22T12:38:09;8.60;92.60
63094;DHT22;49183;51.380;0.098;2022-11-22T12:40:41;8.60;92.50
63094;DHT22;49183;51.380;0.098;2022-11-22T12:43:22;8.70;92.50
63094;DHT22;49183;51.380;0.098;2022-11-22T12:45:51;8.60;92.50
63094;DHT22;49183;51.380;0.098;2022-11-22T12:49:10;8.70;92.50
63094;DHT22;49183;51.380;0.098;2022-11-22T12:51:17;8.70;92.40
63094;DHT22;49183;51.380;0.098;2022-11-22T12:53:47;8.70;92.30
63094;DHT22;49183;51.380;0.098;2022-11-22T13:04:00;8.70;92.00
63094;DHT22;49183;51.380;0.098;2022-11-22T13:06:42;8.70;92.00
63094;DHT22;49183;51.380;0.098;2022-11-22T13:09:13;8.70;92.00
63094;DHT22;49183;51.380;0.098;2022-11-22T13:11:49;8.70;91.80
63094;DHT22;49183;51.380;0.098;2022-11-22T13:14:20;8.70;91.70
63094;DHT22;49183;51.380;0.098;2022-11-22T13:16:49;8.80;91.70
63094;DHT22;49183;51.380;0.098;2022-11-22T13:19:18;8.80;91.80
63094;DHT22;49183;51.380;0.098;2022-11-22T13:24:28;8.80;91.60
63094;DHT22;49183;51.380;0.098;2022-11-22T13:27:03;8.80;91.50
63094;DHT22;49183;51.380;0.098;2022-11-22T13:29:34;8.80;91.30
63094;DHT22;49183;51.380;0.098;2022-11-22T13:34:33;8.80;91.20
63094;DHT22;49183;51.380;0.098;2022-11-22T13:37:07;8.70;91.20
63094;DHT22;49183;51.380;0.098;2022-11-22T13:39:45;8.70;91.20
63094;DHT22;49183;51.380;0.098;2022-11-22T13:42:18;8.70;91.20
63094;DHT22;49183;51.380;0.098;2022-11-22T13:49:50;8.70;91.20
63094;DHT22;49183;51.380;0.098;2022-11-22T14:02:38;8.70;91.20
63094;DHT22;49183;51.380;0.098;2022-11-22T14:05:52;8.80;91.30
63094;DHT22;49183;51.380;0.098;2022-11-22T14:07:54;8.70;91.20
63094;DHT22;49183;51.380;0.098;2022-11-22T14:10:32;8.80;91.20
63094;DHT22;49183;51.380;0.098;2022-11-22T14:15:49;8.80;91.10
63094;DHT22;49183;51.380;0.098;2022-11-22T14:23:26;8.70;90.90
63094;DHT22;49183;51.380;0.098;2022-11-22T14:31:17;8.70;91.20
63094;DHT22;49183;51.380;0.098;2022-11-22T14:36:33;8.70;91.30
63094;DHT22;49183;51.380;0.098;2022-11-22T14:39:00;8.70;91.40
63094;DHT22;49183;51.380;0.098;2022-11-22T14:41:48;8.70;91.50
63094;DHT22;49183;51.380;0.098;2022-11-22T14:44:18;8.70;91.60
63094;DHT22;49183;51.380;0.098;2022-11-22T14:46:49;8.70;91.70
63094;DHT22;49183;51.380;0.098;2022-11-22T14:49:24;8.70;91.70
63094;DHT22;49183;51.380;0.098;2022-11-22T14:51:52;8.70;91.70
63094;DHT22;49183;51.380;0.098;2022-11-22T14:54:22;8.60;91.70
63094;DHT22;49183;51.380;0.098;2022-11-22T14:56:51;8.60;91.70
63094;DHT22;49183;51.380;0.098;2022-11-22T15:04:53;8.50;91.80
63094;DHT22;49183;51.380;0.098;2022-11-22T15:16:30;8.40;92.00
63094;DHT22;49183;51.380;0.098;2022-11-22T15:19:30;8.40;92.00
63094;DHT22;49183;51.380;0.098;2022-11-22T15:22:18;8.40;92.00
63094;DHT22;49183;51.380;0.098;2022-11-22T15:25:15;8.40;92.10
63094;DHT22;49183;51.380;0.098;2022-11-22T15:28:03;8.30;92.10
63094;DHT22;49183;51.380;0.098;2022-11-22T15:30:51;8.30;92.20
63094;DHT22;49183;51.380;0.098;2022-11-22T15:33:38;8.30;92.20
63094;DHT22;49183;51.380;0.098;2022-11-22T15:39:15;8.30;92.40
63094;DHT22;49183;51.380;0.098;2022-11-22T15:42:03;8.20;92.40
63094;DHT22;49183;51.380;0.098;2022-11-22T15:44:51;8.20;92.40
63094;DHT22;49183;51.380;0.098;2022-11-22T15:47:39;8.10;92.50
63094;DHT22;49183;51.380;0.098;2022-11-22T15:50:26;8.10;92.60
63094;DHT22;49183;51.380;0.098;2022-11-22T15:53:17;8.10;92.60
63094;DHT22;49183;51.380;0.098;2022-11-22T15:56:22;8.00;92.60
63094;DHT22;49183;51.380;0.098;2022-11-22T16:01:43;8.00;92.70
63094;DHT22;49183;51.380;0.098;2022-11-22T16:05:12;8.00;92.80
63094;DHT22;49183;51.380;0.098;2022-11-22T16:07:08;7.90;92.80
63094;DHT22;49183;51.380;0.098;2022-11-22T16:09:36;7.90;92.80
63094;DHT22;49183;51.380;0.098;2022-11-22T16:12:05;7.90;92.80
63094;DHT22;49183;51.380;0.098;2022-11-22T16:14:47;7.80;92.90
63094;DHT22;49183;51.380;0.098;2022-11-22T16:17:29;7.90;92.90
63094;DHT22;49183;51.380;0.098;2022-11-22T16:22:43;7.80;93.00
63094;DHT22;49183;51.380;0.098;2022-11-22T16:25:30;7.80;93.00
63094;DHT22;49183;51.380;0.098;2022-11-22T16:27:59;7.80;93.00
63094;DHT22;49183;51.380;0.098;2022-11-22T16:30:27;7.80;93.10
63094;DHT22;49183;51.380;0.098;2022-11-22T16:32:55;7.80;93.10
63094;DHT22;49183;51.380;0.098;2022-11-22T16:35:24;7.80;93.10
63094;DHT22;49183;51.380;0.098;2022-11-22T16:37:56;7.80;93.20
63094;DHT22;49183;51.380;0.098;2022-11-22T16:40:23;7.70;93.20
63094;DHT22;49183;51.380;0.098;2022-11-22T16:42:51;7.70;93.20
63094;DHT22;49183;51.380;0.098;2022-11-22T16:45:19;7.70;93.20
63094;DHT22;49183;51.380;0.098;2022-11-22T16:47:47;7.70;93.30
63094;DHT22;49183;51.380;0.098;2022-11-22T16:50:34;7.60;93.30
63094;DHT22;49183;51.380;0.098;2022-11-22T16:53:07;7.60;93.30
63094;DHT22;49183;51.380;0.098;2022-11-22T16:55:35;7.60;93.30
63094;DHT22;49183;51.380;0.098;2022-11-22T16:58:21;7.60;93.40
63094;DHT22;49183;51.380;0.098;2022-11-22T17:00:49;7.60;93.40
63094;DHT22;49183;51.380;0.098;2022-11-22T17:03:18;7.60;93.40
63094;DHT22;49183;51.380;0.098;2022-11-22T17:05:46;7.60;93.40
63094;DHT22;49183;51.380;0.098;2022-11-22T17:08:14;7.50;93.40
63094;DHT22;49183;51.380;0.098;2022-11-22T17:10:43;7.50;93.40
63094;DHT22;49183;51.380;0.098;2022-11-22T17:13:15;7.50;93.40
63094;DHT22;49183;51.380;0.098;2022-11-22T17:15:43;7.50;93.40
63094;DHT22;49183;51.380;0.098;2022-11-22T17:18:11;7.50;93.40
63094;DHT22;49183;51.380;0.098;2022-11-22T17:20:38;7.50;93.40
63094;DHT22;49183;51.380;0.098;2022-11-22T17:23:08;7.50;93.50
63094;DHT22;49183;51.380;0.098;2022-11-22T17:25:37;7.50;93.50
63094;DHT22;49183;51.380;0.098;2022-11-22T17:28:05;7.50;93.50
63094;DHT22;49183;51.380;0.098;2022-11-22T17:30:32;7.50;93.50
63094;DHT22;49183;51.380;0.098;2022-11-22T17:32:59;7.50;93.50
63094;DHT22;49183;51.380;0.098;2022-11-22T17:35:27;7.50;93.50
63094;DHT22;49183;51.380;0.098;2022-11-22T17:38:01;7.50;93.50
63094;DHT22;49183;51.380;0.098;2022-11-22T17:40:29;7.50;93.50
63094;DHT22;49183;51.380;0.098;2022-11-22T17:42:57;7.50;93.50
63094;DHT22;49183;51.380;0.098;2022-11-22T17:45:24;7.50;93.50
63094;DHT22;49183;51.380;0.098;2022-11-22T17:47:52;7.50;93.50
63094;DHT22;49183;51.380;0.098;2022-11-22T17:50:19;7.40;93.50
63094;DHT22;49183;51.380;0.098;2022-11-22T17:52:47;7.50;93.50
63094;DHT22;49183;51.380;0.098;2022-11-22T17:55:14;7.40;93.50
63094;DHT22;49183;51.380;0.098;2022-11-22T17:57:42;7.40;93.50
63094;DHT22;49183;51.380;0.098;2022-11-22T18:00:10;7.40;93.60
63094;DHT22;49183;51.380;0.098;2022-11-22T18:02:37;7.30;93.60
63094;DHT22;49183;51.380;0.098;2022-11-22T18:05:05;7.40;93.60
63094;DHT22;49183;51.380;0.098;2022-11-22T18:07:35;7.30;93.70
63094;DHT22;49183;51.380;0.098;2022-11-22T18:10:05;7.40;93.70
63094;DHT22;49183;51.380;0.098;2022-11-22T18:12:34;7.40;93.70
63094;DHT22;49183;51.380;0.098;2022-11-22T18:15:13;7.30;93.70
63094;DHT22;49183;51.380;0.098;2022-11-22T18:17:40;7.30;93.60
63094;DHT22;49183;51.380;0.098;2022-11-22T18:20:08;7.30;93.60
63094;DHT22;49183;51.380;0.098;2022-11-22T18:22:35;7.30;93.60
63094;DHT22;49183;51.380;0.098;2022-11-22T18:25:03;7.30;93.60
63094;DHT22;49183;51.380;0.098;2022-11-22T18:27:34;7.30;93.60
63094;DHT22;49183;51.380;0.098;2022-11-22T18:30:08;7.40;93.50
63094;DHT22;49183;51.380;0.098;2022-11-22T18:32:36;7.40;93.50
63094;DHT22;49183;51.380;0.098;2022-11-22T18:35:03;7.30;93.50
63094;DHT22;49183;51.380;0.098;2022-11-22T18:37:31;7.40;93.50
63094;DHT22;49183;51.380;0.098;2022-11-22T18:39:58;7.40;93.40
63094;DHT22;49183;51.380;0.098;2022-11-22T18:42:25;7.40;93.40
63094;DHT22;49183;51.380;0.098;2022-11-22T18:44:53;7.40;93.40
63094;DHT22;49183;51.380;0.098;2022-11-22T18:47:20;7.40;93.30
63094;DHT22;49183;51.380;0.098;2022-11-22T18:49:47;7.40;93.30
63094;DHT22;49183;51.380;0.098;2022-11-22T18:52:15;7.40;93.20
63094;DHT22;49183;51.380;0.098;2022-11-22T18:54:44;7.40;93.10
63094;DHT22;49183;51.380;0.098;2022-11-22T18:57:11;7.40;93.00
63094;DHT22;49183;51.380;0.098;2022-11-22T18:59:39;7.40;92.90